Time;durP1;ratioP1;P1;durP2;ratioP2;P2;SDS_P1;SDS_P2;PMS_P1;PMS_P2;Temp;Humidity;BMP_temperature;BMP_pressure;BME280_temperature;BME280_humidity;BME280_pressure;Samples;Min_cycle;Max_cycle;Signal;HPM_P1;HPM_P2
2021/01/09 00:00:11;;;;;;;11.70;6.30;;;-1.60;99.90;;;;;;5071786;28;20526;-52
2021/01/09 00:02:38;;;;;;;10.23;5.87;;;-1.60;99.90;;;;;;5071768;28;20452;-53
2021/01/09 00:05:05;;;;;;;12.33;5.77;;;-1.60;99.90;;;;;;5071706;28;20466;-53
2021/01/09 00:07:32;;;;;;;10.50;5.80;;;-1.70;99.90;;;;;;5071617;28;20480;-53
2021/01/09 00:09:59;;;;;;;11.70;5.83;;;-1.60;99.90;;;;;;5071078;28;20469;-53
2021/01/09 00:12:26;;;;;;;13.83;6.10;;;-1.40;99.90;;;;;;5071249;28;20479;-52
2021/01/09 00:14:53;;;;;;;9.97;5.30;;;-1.30;99.90;;;;;;5071205;28;20451;-53
2021/01/09 00:17:19;;;;;;;10.13;5.00;;;-1.30;99.90;;;;;;5071894;28;20510;-52
2021/01/09 00:19:46;;;;;;;9.83;5.00;;;-1.40;99.90;;;;;;5071340;28;20934;-52
2021/01/09 00:22:12;;;;;;;10.77;5.23;;;-1.60;99.90;;;;;;5070698;28;20447;-52
2021/01/09 00:24:39;;;;;;;11.60;5.73;;;-1.60;99.90;;;;;;5071146;28;20478;-52
2021/01/09 00:27:10;;;;;;;10.87;5.70;;;-1.70;99.90;;;;;;5071374;28;20463;-52
2021/01/09 00:29:37;;;;;;;13.47;6.00;;;-1.90;99.90;;;;;;5071074;28;20451;-52
2021/01/09 00:32:04;;;;;;;9.23;5.90;;;-1.90;99.90;;;;;;5071191;28;20486;-52
2021/01/09 00:34:30;;;;;;;10.43;5.20;;;-1.80;99.90;;;;;;5070814;28;20452;-52
2021/01/09 00:36:57;;;;;;;10.97;5.93;;;-1.90;99.90;;;;;;5070542;28;20516;-52
2021/01/09 00:39:23;;;;;;;14.73;6.93;;;-2.00;99.90;;;;;;5070784;28;20852;-52
2021/01/09 00:41:50;;;;;;;12.00;5.80;;;-2.00;99.90;;;;;;5071318;28;20553;-52
2021/01/09 00:44:17;;;;;;;11.60;6.67;;;-2.00;99.90;;;;;;5071191;28;20497;-52
2021/01/09 00:46:44;;;;;;;14.07;6.37;;;-2.20;99.90;;;;;;5070953;28;20470;-52
2021/01/09 00:49:14;;;;;;;12.03;5.40;;;-2.20;99.90;;;;;;5070596;28;20459;-53
2021/01/09 00:51:40;;;;;;;8.27;5.03;;;-2.00;99.90;;;;;;5070517;28;20481;-52
2021/01/09 00:54:10;;;;;;;8.97;4.80;;;-2.00;99.90;;;;;;5070430;28;20440;-52
2021/01/09 00:56:37;;;;;;;8.50;4.60;;;-1.80;99.90;;;;;;5070676;28;20451;-52
2021/01/09 00:59:03;;;;;;;9.17;4.83;;;-1.90;99.90;;;;;;5070557;28;20447;-52
2021/01/09 01:01:30;;;;;;;9.30;4.77;;;-2.00;99.90;;;;;;5070868;28;20450;-52
2021/01/09 01:03:57;;;;;;;8.23;4.40;;;-2.10;99.90;;;;;;5070708;28;20569;-52
2021/01/09 01:06:24;;;;;;;9.53;4.80;;;-2.20;99.90;;;;;;5070196;28;20497;-52
2021/01/09 01:08:51;;;;;;;10.30;4.20;;;-2.20;99.90;;;;;;5070253;28;20467;-53
2021/01/09 01:11:24;;;;;;;11.17;5.20;;;-2.30;99.90;;;;;;5070497;28;21073;-52
2021/01/09 01:13:51;;;;;;;9.20;4.87;;;-2.30;99.90;;;;;;5070728;28;20543;-52
2021/01/09 01:16:18;;;;;;;11.33;5.37;;;-2.20;99.90;;;;;;5070354;28;21035;-52
2021/01/09 01:39:35;;;;;;;9.70;4.20;;;-2.30;99.90;;;;;;5074506;28;20774;-51
2021/01/09 01:42:01;;;;;;;6.73;3.80;;;-2.40;99.90;;;;;;5074418;28;20446;-52
2021/01/09 01:47:50;;;;;;;7.30;4.17;;;-2.50;99.90;;;;;;5064302;28;20926;-52
2021/01/09 01:50:16;;;;;;;10.27;4.93;;;-2.30;99.90;;;;;;5073972;28;20804;-52
2021/01/09 01:52:43;;;;;;;7.17;3.67;;;-2.30;99.90;;;;;;5074115;28;20479;-52
2021/01/09 01:55:11;;;;;;;7.93;4.10;;;-2.20;99.90;;;;;;5074332;28;20504;-52
2021/01/09 01:57:38;;;;;;;6.23;3.50;;;-2.40;99.90;;;;;;5074170;28;20462;-52
2021/01/09 02:00:06;;;;;;;7.57;4.00;;;-2.40;99.90;;;;;;5073766;28;21014;-52
2021/01/09 02:02:33;;;;;;;7.00;3.93;;;-2.40;99.90;;;;;;5072153;28;20545;-52
2021/01/09 02:05:03;;;;;;;9.80;3.90;;;-2.20;99.90;;;;;;5073783;28;20450;-52
2021/01/09 02:07:34;;;;;;;8.57;3.73;;;-2.40;99.90;;;;;;5073749;28;20482;-52
2021/01/09 02:10:02;;;;;;;6.20;3.53;;;-2.20;99.90;;;;;;5073737;28;20447;-52
2021/01/09 02:12:36;;;;;;;5.80;2.93;;;-2.30;99.90;;;;;;5053827;28;20571;-52
2021/01/09 02:15:04;;;;;;;7.10;3.70;;;-2.30;99.90;;;;;;5055167;28;20443;-52
2021/01/09 02:17:32;;;;;;;5.77;3.00;;;-2.30;99.90;;;;;;5053539;28;20977;-52
2021/01/09 02:20:00;;;;;;;3.80;2.70;;;-2.30;99.90;;;;;;5053480;28;20514;-52
2021/01/09 02:22:32;;;;;;;6.40;3.33;;;-2.40;99.90;;;;;;5073102;28;20447;-53
2021/01/09 02:24:59;;;;;;;6.87;3.70;;;-2.50;99.90;;;;;;5073212;28;21004;-52
2021/01/09 02:27:26;;;;;;;7.53;3.70;;;-2.60;99.90;;;;;;5073575;28;20478;-53
2021/01/09 02:29:58;;;;;;;8.80;3.67;;;-2.60;99.90;;;;;;5073185;28;20462;-52
2021/01/09 02:32:30;;;;;;;4.93;3.00;;;-2.60;99.90;;;;;;5073463;28;20483;-53
2021/01/09 02:34:59;;;;;;;7.70;3.60;;;-2.60;99.90;;;;;;5072799;28;20530;-53
2021/01/09 02:37:26;;;;;;;5.53;3.10;;;-2.40;99.90;;;;;;5073542;28;20471;-51
2021/01/09 02:39:54;;;;;;;4.37;2.80;;;-2.50;99.90;;;;;;5073143;28;20446;-52
2021/01/09 02:42:22;;;;;;;5.30;3.40;;;-2.50;99.90;;;;;;5073320;28;20476;-52
2021/01/09 02:44:50;;;;;;;5.03;2.97;;;-2.50;99.90;;;;;;5072049;28;20873;-52
2021/01/09 02:47:17;;;;;;;5.97;3.40;;;-2.50;99.90;;;;;;5073235;28;20471;-52
2021/01/09 02:49:44;;;;;;;7.33;3.27;;;-2.70;99.90;;;;;;5072586;28;20953;-52
2021/01/09 02:52:10;;;;;;;6.83;3.30;;;-2.60;99.90;;;;;;5072709;28;20995;-51
2021/01/09 02:54:37;;;;;;;5.73;3.40;;;-2.60;99.90;;;;;;5072689;28;20504;-51
2021/01/09 02:57:04;;;;;;;7.83;3.17;;;-2.40;99.90;;;;;;5072937;28;20554;-52
2021/01/09 02:59:31;;;;;;;8.40;3.50;;;-2.50;99.90;;;;;;5072787;28;20477;-51
2021/01/09 03:01:58;;;;;;;6.27;3.43;;;-2.50;99.90;;;;;;5072900;28;20446;-52
2021/01/09 03:04:24;;;;;;;7.03;3.17;;;-2.50;99.90;;;;;;5072248;28;20443;-52
2021/01/09 03:06:50;;;;;;;6.23;3.60;;;-2.60;99.90;;;;;;5072597;28;20988;-51
2021/01/09 03:09:17;;;;;;;5.03;3.17;;;-2.70;99.90;;;;;;5072799;28;20507;-52
2021/01/09 03:11:43;;;;;;;7.10;3.47;;;-2.70;99.90;;;;;;5072843;28;20489;-52
2021/01/09 03:14:10;;;;;;;5.20;3.27;;;-2.80;99.90;;;;;;5071640;28;20450;-51
2021/01/09 03:16:37;;;;;;;5.40;2.80;;;-2.90;99.90;;;;;;5071705;28;20942;-51
2021/01/09 03:19:07;;;;;;;5.20;2.90;;;-2.90;99.90;;;;;;5072313;28;20454;-51
2021/01/09 03:21:34;;;;;;;5.77;2.77;;;-2.70;99.90;;;;;;5072499;28;20463;-52
2021/01/09 03:24:00;;;;;;;6.80;3.90;;;-2.70;99.90;;;;;;5072237;28;20446;-51
2021/01/09 03:26:26;;;;;;;7.53;3.00;;;-2.50;99.90;;;;;;5072130;28;21125;-51
2021/01/09 03:28:53;;;;;;;7.10;3.60;;;-2.60;99.90;;;;;;5072284;28;20508;-51
2021/01/09 03:31:20;;;;;;;6.20;3.10;;;-2.60;99.90;;;;;;5072262;28;20478;-51
2021/01/09 03:33:47;;;;;;;4.23;2.47;;;-2.50;99.90;;;;;;5071885;28;20449;-51
2021/01/09 03:36:13;;;;;;;6.43;2.50;;;-2.30;99.90;;;;;;5072632;28;20451;-51
2021/01/09 03:38:40;;;;;;;6.07;2.87;;;-2.50;99.90;;;;;;5072231;28;20474;-51
2021/01/09 03:41:06;;;;;;;5.30;2.43;;;-2.40;99.90;;;;;;5071867;28;20451;-52
2021/01/09 03:43:33;;;;;;;3.30;2.40;;;-2.40;99.90;;;;;;5071908;28;20897;-51
2021/01/09 03:45:59;;;;;;;5.10;2.87;;;-2.40;99.90;;;;;;5072139;28;20447;-51
2021/01/09 03:48:26;;;;;;;3.10;2.30;;;-2.50;99.90;;;;;;5071606;28;20471;-52
2021/01/09 03:50:53;;;;;;;5.30;2.70;;;-2.50;99.90;;;;;;5071081;28;20451;-52
2021/01/09 03:53:20;;;;;;;8.90;3.10;;;-2.70;99.90;;;;;;5071974;28;20451;-52
2021/01/09 03:55:46;;;;;;;4.97;3.07;;;-2.90;99.90;;;;;;5070518;28;20497;-51
2021/01/09 03:58:13;;;;;;;7.37;3.10;;;-3.00;99.90;;;;;;5071833;28;20474;-51
2021/01/09 04:00:39;;;;;;;4.50;2.90;;;-3.10;99.90;;;;;;5071453;28;20960;-50
2021/01/09 04:03:06;;;;;;;9.20;2.90;;;-3.20;99.90;;;;;;5071603;28;20447;-51
2021/01/09 04:05:32;;;;;;;5.57;2.67;;;-3.30;99.90;;;;;;5071355;28;20982;-52
2021/01/09 04:08:00;;;;;;;7.43;3.40;;;-3.30;99.90;;;;;;5071492;28;20486;-51
2021/01/09 04:10:26;;;;;;;7.73;3.40;;;-3.10;99.90;;;;;;5071450;28;20455;-51
2021/01/09 04:12:53;;;;;;;7.80;4.07;;;-3.20;99.90;;;;;;5071347;28;20478;-51
2021/01/09 04:15:19;;;;;;;6.93;4.40;;;-3.20;99.90;;;;;;5071000;28;20447;-52
2021/01/09 04:17:46;;;;;;;8.03;3.90;;;-3.20;99.90;;;;;;5071689;28;20548;-52
2021/01/09 04:20:12;;;;;;;8.70;4.20;;;-3.30;99.90;;;;;;5070946;28;20508;-52
2021/01/09 04:22:39;;;;;;;11.67;4.40;;;-3.40;99.90;;;;;;5071563;28;20451;-52
2021/01/09 04:25:07;;;;;;;9.20;4.20;;;-3.50;99.90;;;;;;5071187;28;20454;-51
2021/01/09 04:27:34;;;;;;;15.63;5.13;;;-3.70;99.90;;;;;;5071378;28;20470;-51
2021/01/09 04:30:00;;;;;;;10.03;5.10;;;-3.80;99.90;;;;;;5071044;28;20455;-52
2021/01/09 04:32:29;;;;;;;9.70;4.70;;;-3.90;99.90;;;;;;5070937;28;20992;-51
2021/01/09 04:34:56;;;;;;;13.10;5.97;;;-3.80;99.90;;;;;;5070704;28;20457;-51
2021/01/09 04:37:22;;;;;;;9.80;5.50;;;-3.80;99.90;;;;;;5071201;28;20470;-51
2021/01/09 04:39:49;;;;;;;13.70;6.00;;;-3.90;99.90;;;;;;5063955;28;21035;-51
2021/01/09 04:42:17;;;;;;;9.00;5.77;;;-4.00;99.90;;;;;;5068434;28;20447;-51
2021/01/09 04:44:44;;;;;;;11.87;6.07;;;-4.00;99.90;;;;;;5070524;28;20549;-52
2021/01/09 04:47:12;;;;;;;11.13;5.47;;;-4.00;99.90;;;;;;5070973;28;20516;-51
2021/01/09 04:49:39;;;;;;;11.73;5.90;;;-3.80;99.90;;;;;;5070778;28;20959;-51
2021/01/09 04:52:07;;;;;;;11.77;5.90;;;-3.80;99.90;;;;;;5070854;28;20569;-50
2021/01/09 04:54:35;;;;;;;11.60;6.23;;;-3.90;99.90;;;;;;5070705;28;20813;-51
2021/01/09 04:57:02;;;;;;;16.43;6.03;;;-4.00;99.90;;;;;;5070614;28;20489;-51
2021/01/09 04:59:29;;;;;;;12.50;5.77;;;-4.10;99.90;;;;;;5070776;28;20457;-51
2021/01/09 05:01:57;;;;;;;10.93;5.70;;;-4.10;99.90;;;;;;5070413;28;20439;-51
2021/01/09 05:04:24;;;;;;;10.93;5.37;;;-4.10;99.90;;;;;;5066184;28;20804;-51
2021/01/09 05:06:50;;;;;;;11.67;5.90;;;-4.10;99.90;;;;;;5070242;28;20482;-51
2021/01/09 05:09:17;;;;;;;10.37;5.47;;;-4.00;99.90;;;;;;5070500;28;20450;-51
2021/01/09 05:11:44;;;;;;;15.10;6.40;;;-4.00;99.90;;;;;;5070188;28;20478;-51
2021/01/09 05:14:11;;;;;;;15.53;6.33;;;-3.80;99.90;;;;;;5070572;28;20447;-51
2021/01/09 05:16:40;;;;;;;10.80;6.30;;;-3.80;99.90;;;;;;5069963;28;20455;-52
2021/01/09 05:19:09;;;;;;;9.77;5.63;;;-3.80;99.90;;;;;;5070428;28;20446;-51
2021/01/09 05:21:37;;;;;;;15.50;6.57;;;-3.80;99.90;;;;;;5070573;28;20447;-50
2021/01/09 05:24:08;;;;;;;13.87;7.00;;;-3.70;99.90;;;;;;5070265;28;20446;-51
2021/01/09 05:26:36;;;;;;;16.63;5.93;;;-3.70;99.90;;;;;;5070837;28;20447;-51
2021/01/09 05:29:04;;;;;;;12.00;5.70;;;-3.80;99.90;;;;;;5070462;28;20451;-52
2021/01/09 05:31:35;;;;;;;11.90;6.30;;;-3.80;99.90;;;;;;5070119;28;20532;-51
2021/01/09 05:34:03;;;;;;;16.07;7.00;;;-3.90;99.90;;;;;;5070409;28;20541;-51
2021/01/09 05:36:30;;;;;;;17.90;6.60;;;-3.80;99.90;;;;;;5070410;28;20870;-51
2021/01/09 05:38:57;;;;;;;14.73;6.70;;;-3.80;99.90;;;;;;5070230;28;20446;-51
2021/01/09 05:41:25;;;;;;;15.00;7.23;;;-3.80;99.90;;;;;;5070545;28;20861;-51
2021/01/09 05:43:59;;;;;;;14.03;6.43;;;-3.90;99.90;;;;;;5069445;28;20455;-51
2021/01/09 05:46:29;;;;;;;19.90;8.40;;;-3.90;99.90;;;;;;5068201;28;20955;-56
2021/01/09 05:48:55;;;;;;;11.77;6.33;;;-3.90;99.90;;;;;;5070232;28;20443;-51
2021/01/09 05:51:24;;;;;;;15.37;7.10;;;-4.00;99.90;;;;;;5069499;28;20843;-51
2021/01/09 05:53:50;;;;;;;14.63;6.60;;;-4.00;99.90;;;;;;5070179;28;20537;-51
2021/01/09 05:56:21;;;;;;;12.30;6.23;;;-4.00;99.90;;;;;;5070502;28;20450;-51
2021/01/09 05:58:49;;;;;;;14.77;7.37;;;-3.90;99.90;;;;;;5070086;28;20478;-51
2021/01/09 06:01:19;;;;;;;16.97;7.87;;;-3.80;99.90;;;;;;5070277;28;20447;-51
2021/01/09 06:03:47;;;;;;;15.60;7.00;;;-3.80;99.90;;;;;;5069868;28;20454;-50
2021/01/09 06:06:35;;;;;;;15.93;7.83;;;-3.80;99.90;;;;;;5070542;28;20859;-51
2021/01/09 06:09:04;;;;;;;13.13;6.90;;;-3.80;99.90;;;;;;5069827;28;20572;-51
2021/01/09 06:11:36;;;;;;;15.03;7.50;;;-3.80;99.90;;;;;;5069793;28;20860;-52
2021/01/09 06:14:05;;;;;;;15.33;7.10;;;-3.80;99.90;;;;;;5070056;28;20446;-51
2021/01/09 06:16:33;;;;;;;15.40;7.60;;;-4.00;99.90;;;;;;5070435;28;20491;-52
2021/01/09 06:19:00;;;;;;;15.97;8.27;;;-4.20;99.90;;;;;;5070494;28;20454;-51
2021/01/09 06:21:29;;;;;;;22.03;9.60;;;-4.10;99.90;;;;;;5071554;28;20451;-51
2021/01/09 06:23:57;;;;;;;15.93;8.10;;;-4.00;99.90;;;;;;5073208;28;21236;-51
2021/01/09 06:26:25;;;;;;;20.37;9.00;;;-4.10;99.90;;;;;;5073902;28;20446;-51
2021/01/09 06:28:56;;;;;;;15.20;7.70;;;-4.00;99.90;;;;;;5073187;28;20466;-51
2021/01/09 06:31:24;;;;;;;14.30;7.00;;;-4.10;99.90;;;;;;5069889;28;20451;-51
2021/01/09 06:33:53;;;;;;;25.17;12.90;;;-4.10;99.90;;;;;;5073330;28;20538;-50
2021/01/09 06:36:21;;;;;;;21.77;8.93;;;-4.20;99.90;;;;;;5073522;28;20446;-51
2021/01/09 06:38:49;;;;;;;21.63;10.23;;;-4.30;99.90;;;;;;5073360;28;20463;-51
2021/01/09 06:41:19;;;;;;;19.50;9.20;;;-4.30;99.90;;;;;;5071400;28;20446;-51
2021/01/09 06:43:48;;;;;;;20.33;9.40;;;-4.20;99.90;;;;;;5072690;28;20447;-51
2021/01/09 06:46:27;;;;;;;17.60;8.47;;;-4.10;99.90;;;;;;5073518;28;20443;-51
2021/01/09 06:48:54;;;;;;;15.27;7.40;;;-4.30;99.90;;;;;;5073016;28;20537;-51
2021/01/09 06:51:40;;;;;;;18.77;8.37;;;-4.30;99.90;;;;;;5069696;28;21004;-51
2021/01/09 06:54:23;;;;;;;21.70;9.20;;;-4.20;99.90;;;;;;5072621;28;20453;-51
2021/01/09 07:00:18;;;;;;;19.00;8.53;;;-4.00;99.90;;;;;;5072483;28;20469;-51
2021/01/09 07:03:11;;;;;;;19.83;8.20;;;-4.00;99.90;;;;;;5072497;28;20446;-51
2021/01/09 07:05:43;;;;;;;21.57;9.20;;;-4.00;99.90;;;;;;5072538;28;20447;-51
2021/01/09 07:08:18;;;;;;;22.83;10.00;;;-3.90;99.90;;;;;;5072376;28;20483;-51
2021/01/09 07:10:48;;;;;;;18.90;8.87;;;-4.00;99.90;;;;;;5071037;28;20446;-50
2021/01/09 07:13:15;;;;;;;18.17;9.00;;;-4.00;99.90;;;;;;5071587;28;20482;-51
2021/01/09 07:15:43;;;;;;;19.33;7.20;;;-3.90;99.90;;;;;;5072387;28;20529;-50
2021/01/09 07:18:10;;;;;;;16.67;8.03;;;-4.00;99.90;;;;;;5072231;28;20474;-51
2021/01/09 07:20:38;;;;;;;20.07;8.50;;;-4.10;99.90;;;;;;5072215;28;20451;-51
2021/01/09 07:23:07;;;;;;;15.03;7.70;;;-4.20;99.90;;;;;;5070315;28;20493;-50
2021/01/09 07:25:36;;;;;;;15.07;7.67;;;-4.10;99.90;;;;;;5053738;28;20447;-50
2021/01/09 07:28:05;;;;;;;14.27;7.50;;;-4.00;99.90;;;;;;5052625;28;20893;-51
2021/01/09 07:30:32;;;;;;;15.53;7.53;;;-3.90;99.90;;;;;;5055042;28;20447;-51
2021/01/09 07:33:00;;;;;;;13.00;6.93;;;-3.90;99.90;;;;;;5072145;28;21058;-50
2021/01/09 07:35:29;;;;;;;22.13;10.20;;;-3.90;99.90;;;;;;5070990;28;20455;-50
2021/01/09 07:37:58;;;;;;;18.93;10.50;;;-3.90;99.90;;;;;;5070312;28;20483;-50
2021/01/09 07:40:25;;;;;;;17.17;10.13;;;-4.00;99.90;;;;;;5071788;28;20481;-51
2021/01/09 07:42:52;;;;;;;20.43;10.77;;;-4.10;99.90;;;;;;5072489;28;20443;-50
2021/01/09 07:45:21;;;;;;;22.80;10.23;;;-4.10;99.90;;;;;;5069713;28;20512;-51
2021/01/09 07:47:50;;;;;;;23.00;10.37;;;-4.10;99.90;;;;;;5056692;28;20466;-50
2021/01/09 07:50:18;;;;;;;21.17;9.53;;;-4.10;99.90;;;;;;5071686;28;20451;-51
2021/01/09 07:52:46;;;;;;;21.77;10.07;;;-4.10;99.90;;;;;;5061515;28;20525;-51
2021/01/09 07:55:18;;;;;;;24.07;10.50;;;-4.10;99.90;;;;;;5052920;28;20491;-51
2021/01/09 07:57:46;;;;;;;32.27;11.93;;;-4.00;99.90;;;;;;5067075;28;21147;-51
2021/01/09 08:00:15;;;;;;;18.33;9.07;;;-3.90;99.90;;;;;;5063058;28;20539;-51
2021/01/09 08:02:44;;;;;;;23.13;8.90;;;-3.80;99.90;;;;;;5070969;28;20478;-51
2021/01/09 08:05:14;;;;;;;16.07;7.27;;;-3.60;99.90;;;;;;5070898;28;20478;-51
2021/01/09 08:07:44;;;;;;;11.10;6.20;;;-3.60;99.90;;;;;;5071551;28;20474;-50
2021/01/09 08:10:18;;;;;;;10.90;5.17;;;-3.60;99.90;;;;;;5070924;28;20554;-50
2021/01/09 08:12:45;;;;;;;11.47;5.27;;;-3.60;99.90;;;;;;5071293;28;20531;-50
2021/01/09 08:15:13;;;;;;;8.63;4.90;;;-3.80;99.90;;;;;;5070358;28;20481;-51
2021/01/09 08:17:39;;;;;;;12.33;5.70;;;-3.70;99.90;;;;;;5071325;28;20494;-50
2021/01/09 08:20:08;;;;;;;19.03;7.50;;;-3.70;99.90;;;;;;5071541;28;20447;-51
2021/01/09 08:22:36;;;;;;;15.57;6.87;;;-3.70;99.90;;;;;;5071583;28;20520;-51
2021/01/09 08:25:12;;;;;;;18.10;8.27;;;-3.70;99.90;;;;;;5070975;28;20474;-51
2021/01/09 08:28:00;;;;;;;17.60;8.67;;;-3.60;99.90;;;;;;5071218;28;20470;-51
2021/01/09 08:30:28;;;;;;;24.67;9.10;;;-3.60;99.90;;;;;;5065214;28;20457;-52
2021/01/09 08:33:02;;;;;;;28.00;9.80;;;-3.50;99.90;;;;;;5071041;28;20475;-51
2021/01/09 08:35:29;;;;;;;25.57;8.13;;;-3.40;99.90;;;;;;5070536;28;20457;-51
2021/01/09 08:37:56;;;;;;;17.13;7.50;;;-3.10;99.90;;;;;;5068844;28;20528;-52
2021/01/09 08:40:25;;;;;;;14.90;7.63;;;-3.00;99.90;;;;;;5070153;28;20458;-51
2021/01/09 08:43:03;;;;;;;12.70;6.60;;;-3.00;99.90;;;;;;5070458;28;20442;-51
2021/01/09 08:45:41;;;;;;;15.17;6.57;;;-2.80;99.90;;;;;;5070667;28;20450;-51
2021/01/09 08:48:10;;;;;;;17.10;7.30;;;-2.60;99.90;;;;;;5070815;28;20520;-51
2021/01/09 08:50:45;;;;;;;15.27;6.23;;;-2.30;99.90;;;;;;5070510;28;20963;-51
2021/01/09 08:53:14;;;;;;;11.03;5.97;;;-1.80;99.90;;;;;;5070946;28;20529;-51
2021/01/09 08:55:43;;;;;;;14.10;7.13;;;-1.40;99.90;;;;;;5070907;28;20451;-51
2021/01/09 08:58:12;;;;;;;16.27;6.73;;;-1.10;99.90;;;;;;5070967;28;20473;-52
2021/01/09 09:00:39;;;;;;;10.50;5.60;;;-0.90;99.90;;;;;;5070245;28;20454;-51
2021/01/09 09:03:07;;;;;;;11.80;6.37;;;-0.80;99.90;;;;;;5070444;28;20963;-51
2021/01/09 09:05:34;;;;;;;21.03;8.63;;;-0.70;99.90;;;;;;5069284;28;20448;-51
2021/01/09 09:08:03;;;;;;;14.13;7.37;;;-0.60;99.90;;;;;;5070563;28;20569;-51
2021/01/09 09:10:32;;;;;;;12.87;6.83;;;-0.80;99.90;;;;;;5068572;28;20452;-51
2021/01/09 09:13:18;;;;;;;14.80;6.97;;;-0.90;99.90;;;;;;5064746;28;20939;-51
2021/01/09 09:15:46;;;;;;;13.00;5.67;;;-0.70;99.90;;;;;;5058702;28;20502;-52
2021/01/09 09:18:13;;;;;;;12.23;6.43;;;-0.70;99.90;;;;;;5070704;28;20481;-51
2021/01/09 09:20:45;;;;;;;12.33;6.00;;;-0.80;99.90;;;;;;5070682;28;20443;-51
2021/01/09 09:23:19;;;;;;;13.30;6.67;;;-0.70;99.90;;;;;;5071067;28;20527;-52
2021/01/09 09:25:46;;;;;;;16.20;6.03;;;-0.60;99.90;;;;;;5068437;28;20439;-53
2021/01/09 09:28:13;;;;;;;11.40;6.47;;;-0.40;99.90;;;;;;5061562;28;20460;-52
2021/01/09 09:30:40;;;;;;;12.90;6.43;;;-0.30;99.90;;;;;;5055561;28;20437;-51
2021/01/09 09:33:14;;;;;;;13.63;7.20;;;-0.30;99.90;;;;;;5062705;28;22098;-52
2021/01/09 09:35:41;;;;;;;15.10;7.63;;;-0.50;99.90;;;;;;5068608;28;20464;-51
2021/01/09 09:38:11;;;;;;;14.10;7.20;;;-0.60;99.90;;;;;;5069324;28;20488;-51
2021/01/09 09:40:39;;;;;;;12.83;7.10;;;-0.60;99.90;;;;;;5067830;28;20518;-55
2021/01/09 09:43:14;;;;;;;15.17;7.17;;;-0.40;99.90;;;;;;5069365;28;20455;-52
2021/01/09 09:45:55;;;;;;;11.93;6.60;;;-0.50;99.90;;;;;;5066387;28;20454;-52
2021/01/09 09:48:29;;;;;;;19.03;8.60;;;-0.60;99.90;;;;;;5064077;28;20489;-52
2021/01/09 09:51:08;;;;;;;15.70;6.50;;;-0.30;99.90;;;;;;5062374;28;20604;-52
2021/01/09 09:53:36;;;;;;;12.70;6.33;;;-0.60;99.90;;;;;;5063247;28;20484;-52
2021/01/09 09:56:16;;;;;;;27.20;7.17;;;-0.10;99.90;;;;;;5069929;28;20460;-51
2021/01/09 09:58:43;;;;;;;11.30;5.87;;;0.60;99.90;;;;;;5066846;28;20479;-51
2021/01/09 10:01:21;;;;;;;7.70;4.37;;;0.50;99.90;;;;;;5067898;28;20470;-52
2021/01/09 10:03:49;;;;;;;11.00;4.83;;;0.00;99.90;;;;;;5070206;28;20821;-52
2021/01/09 10:06:16;;;;;;;6.07;4.10;;;0.10;99.90;;;;;;5067146;28;20560;-52
2021/01/09 10:08:43;;;;;;;7.50;4.40;;;0.10;99.90;;;;;;5065773;28;20537;-53
2021/01/09 10:11:10;;;;;;;13.57;4.40;;;-0.10;99.90;;;;;;5065805;28;20518;-51
2021/01/09 10:13:37;;;;;;;8.73;5.20;;;-0.10;99.90;;;;;;5069028;28;20488;-51
2021/01/09 10:16:05;;;;;;;9.70;5.17;;;0.00;99.90;;;;;;5066331;28;20463;-53
2021/01/09 10:18:35;;;;;;;13.53;5.30;;;0.50;99.90;;;;;;5066405;28;20476;-52
2021/01/09 10:21:03;;;;;;;14.20;5.20;;;0.60;99.90;;;;;;5070513;28;20460;-53
2021/01/09 10:23:30;;;;;;;7.87;4.33;;;0.70;99.90;;;;;;5070336;28;20496;-53
2021/01/09 10:25:58;;;;;;;10.47;4.60;;;0.90;99.90;;;;;;5070102;28;20491;-52
2021/01/09 10:28:25;;;;;;;8.60;4.00;;;1.00;99.90;;;;;;5072891;28;20568;-52
2021/01/09 10:30:52;;;;;;;6.60;4.20;;;1.40;99.90;;;;;;5070012;28;20462;-53
2021/01/09 10:33:18;;;;;;;7.80;4.87;;;1.70;99.90;;;;;;5070773;28;20521;-52
2021/01/09 10:35:47;;;;;;;8.63;4.57;;;2.10;99.90;;;;;;5070877;28;20508;-54
2021/01/09 10:38:14;;;;;;;15.33;4.97;;;1.90;99.90;;;;;;5069706;28;20564;-53
2021/01/09 10:40:42;;;;;;;8.17;4.83;;;2.40;99.90;;;;;;5070706;28;20457;-53
2021/01/09 10:43:08;;;;;;;15.20;5.70;;;2.70;99.90;;;;;;5078336;28;20775;-53
2021/01/09 10:45:35;;;;;;;9.70;4.87;;;2.70;99.90;;;;;;5071214;28;20466;-53
2021/01/09 10:48:02;;;;;;;9.30;5.60;;;1.90;99.90;;;;;;5071384;28;20484;-52
2021/01/09 10:50:29;;;;;;;12.33;6.20;;;1.60;99.90;;;;;;5070462;28;20474;-53
2021/01/09 10:52:56;;;;;;;8.37;4.90;;;1.80;99.90;;;;;;5069236;28;21180;-53
2021/01/09 10:55:23;;;;;;;7.37;4.10;;;2.00;99.90;;;;;;5065894;28;20970;-52
2021/01/09 10:57:50;;;;;;;13.53;6.00;;;2.30;99.90;;;;;;5066785;28;20500;-53
2021/01/09 11:00:17;;;;;;;16.40;7.33;;;2.10;99.90;;;;;;5066059;28;20468;-53
2021/01/09 11:02:44;;;;;;;10.90;5.63;;;2.30;99.90;;;;;;5067872;28;20519;-52
2021/01/09 11:05:11;;;;;;;18.43;6.20;;;2.40;99.90;;;;;;5066339;28;20473;-52
2021/01/09 11:07:38;;;;;;;14.60;6.50;;;2.20;99.90;;;;;;5065918;28;20544;-52
2021/01/09 11:10:07;;;;;;;11.23;5.27;;;2.00;99.90;;;;;;5067609;28;20466;-53
2021/01/09 11:12:33;;;;;;;9.13;5.50;;;1.90;99.90;;;;;;5065228;28;20487;-53
2021/01/09 11:15:00;;;;;;;10.57;5.27;;;2.00;99.90;;;;;;5065686;28;21003;-53
2021/01/09 11:17:26;;;;;;;14.13;6.23;;;1.50;99.90;;;;;;5064877;28;20493;-52
2021/01/09 11:19:53;;;;;;;11.33;5.10;;;1.60;99.90;;;;;;5065370;28;20535;-52
2021/01/09 11:22:19;;;;;;;8.47;5.20;;;1.80;99.90;;;;;;5065333;28;20461;-52
2021/01/09 11:24:46;;;;;;;8.93;4.43;;;2.00;99.90;;;;;;5065193;28;20471;-51
2021/01/09 11:27:15;;;;;;;10.23;5.50;;;2.10;99.90;;;;;;5064621;28;20568;-52
2021/01/09 11:29:42;;;;;;;12.53;7.20;;;1.90;99.90;;;;;;5068246;28;20848;-52
2021/01/09 11:32:08;;;;;;;16.17;6.37;;;2.00;99.90;;;;;;5069704;28;20481;-52
2021/01/09 11:34:35;;;;;;;14.37;7.33;;;2.20;99.90;;;;;;5069086;28;20466;-52
2021/01/09 11:37:01;;;;;;;13.00;6.77;;;2.10;99.90;;;;;;5071257;28;20483;-52
2021/01/09 11:39:28;;;;;;;8.40;5.30;;;2.30;99.90;;;;;;5069472;28;20470;-52
2021/01/09 11:41:57;;;;;;;8.73;5.33;;;2.30;99.90;;;;;;5071700;28;20446;-52
2021/01/09 11:44:25;;;;;;;9.20;5.70;;;2.30;99.90;;;;;;5070335;28;20823;-52
2021/01/09 11:46:51;;;;;;;12.60;7.00;;;2.50;99.90;;;;;;5071256;28;20466;-52
2021/01/09 11:49:18;;;;;;;10.17;4.70;;;2.70;99.90;;;;;;5067327;28;20968;-52
2021/01/09 11:51:45;;;;;;;7.73;5.20;;;2.70;99.90;;;;;;5070618;28;20890;-52
2021/01/09 11:54:12;;;;;;;9.47;5.30;;;2.30;99.90;;;;;;5070783;28;21023;-52
2021/01/09 11:56:40;;;;;;;8.13;4.90;;;2.40;99.90;;;;;;5071652;28;20478;-52
2021/01/09 11:59:10;;;;;;;13.07;5.60;;;2.10;99.90;;;;;;5070744;28;20454;-52
2021/01/09 12:01:38;;;;;;;9.10;4.53;;;1.90;99.90;;;;;;5071524;28;20469;-52
2021/01/09 12:04:07;;;;;;;9.70;4.50;;;2.10;99.90;;;;;;5069513;28;20496;-52
2021/01/09 12:06:34;;;;;;;26.07;5.67;;;1.90;99.90;;;;;;5071232;28;20446;-52
2021/01/09 12:09:00;;;;;;;12.00;5.43;;;2.00;99.90;;;;;;5071119;28;20455;-52
2021/01/09 12:11:27;;;;;;;14.50;6.53;;;2.00;99.90;;;;;;5070623;28;20464;-52
2021/01/09 12:13:54;;;;;;;9.83;4.70;;;2.20;99.90;;;;;;5070382;28;21455;-52
2021/01/09 12:16:29;;;;;;;7.10;4.17;;;2.20;99.90;;;;;;5070524;28;20529;-52
2021/01/09 12:18:57;;;;;;;10.50;4.70;;;2.10;99.90;;;;;;5065071;28;20552;-52
2021/01/09 12:21:23;;;;;;;6.90;3.80;;;2.00;99.90;;;;;;5059960;28;20446;-52
2021/01/09 12:23:50;;;;;;;11.57;5.17;;;1.70;99.90;;;;;;5070264;28;21030;-52
2021/01/09 12:26:19;;;;;;;7.10;4.03;;;1.70;99.90;;;;;;5069327;28;20470;-52
2021/01/09 12:28:46;;;;;;;6.50;3.70;;;1.90;99.90;;;;;;5068476;28;20999;-52
2021/01/09 12:31:13;;;;;;;6.20;4.20;;;1.90;99.90;;;;;;5070532;28;20915;-53
2021/01/09 12:33:41;;;;;;;13.20;6.43;;;2.00;99.90;;;;;;5068671;28;20535;-52
2021/01/09 12:36:09;;;;;;;9.93;5.73;;;2.00;99.90;;;;;;5059608;28;20454;-52
2021/01/09 12:38:38;;;;;;;11.73;5.33;;;2.10;99.90;;;;;;5070341;28;20905;-52
2021/01/09 12:41:04;;;;;;;7.83;4.33;;;2.20;99.90;;;;;;5070700;28;20507;-51
2021/01/09 12:43:31;;;;;;;17.67;5.70;;;2.30;99.90;;;;;;5060257;28;20435;-51
2021/01/09 12:45:58;;;;;;;12.60;5.77;;;2.20;99.90;;;;;;5056842;28;20443;-52
2021/01/09 12:48:24;;;;;;;10.80;6.70;;;2.00;99.90;;;;;;5070665;28;20879;-52
2021/01/09 12:50:51;;;;;;;14.10;6.27;;;1.60;99.90;;;;;;5070030;28;20454;-52
2021/01/09 12:53:19;;;;;;;10.13;5.80;;;1.40;99.90;;;;;;5069999;28;20503;-52
2021/01/09 12:55:45;;;;;;;10.17;5.40;;;1.60;99.90;;;;;;5070099;28;20966;-52
2021/01/09 12:58:12;;;;;;;11.30;6.00;;;1.60;99.90;;;;;;5070658;28;20471;-52
2021/01/09 13:00:39;;;;;;;9.10;6.00;;;1.80;99.90;;;;;;5070254;28;20461;-52
2021/01/09 13:03:05;;;;;;;10.23;5.67;;;1.90;99.90;;;;;;5069955;28;20995;-52
2021/01/09 13:05:32;;;;;;;9.90;5.90;;;1.90;99.90;;;;;;5070064;28;20511;-52
2021/01/09 13:07:59;;;;;;;15.13;6.87;;;2.00;99.90;;;;;;5069168;28;20485;-52
2021/01/09 13:10:26;;;;;;;10.23;6.37;;;1.50;99.90;;;;;;5070140;28;20878;-53
2021/01/09 13:12:53;;;;;;;9.40;5.70;;;1.20;99.90;;;;;;5063163;28;20489;-52
2021/01/09 13:15:19;;;;;;;11.57;6.47;;;1.10;99.90;;;;;;5063758;28;20551;-52